Time;durP1;ratioP1;P1;durP2;ratioP2;P2;SDS_P1;SDS_P2;PMS_P1;PMS_P2;Temp;Humidity;BMP_temperature;BMP_pressure;BME280_temperature;BME280_humidity;BME280_pressure;Samples;Min_cycle;Max_cycle;Signal;HPM_P1;HPM_P2
2021/06/03 00:03:51;;;;;;;;;;;;;;;22.38;34.56;101878.28;6108556;23;99573;-88
2021/06/03 00:06:17;;;;;;;;;;;;;;;22.56;34.20;101874.34;6074233;23;96764;-89
2021/06/03 00:08:45;;;;;;;;;;;;;;;22.45;34.34;101866.97;6079473;23;96820;-88
2021/06/03 00:11:14;;;;;;;;;;;;;;;22.41;34.56;101873.53;6082283;23;99380;-88
2021/06/03 00:13:43;;;;;;;;;;;;;;;22.46;34.40;101873.22;6078639;23;100170;-87
2021/06/03 00:16:11;;;;;;;;;;;;;;;22.45;34.52;101877.75;6082839;23;96569;-87
2021/06/03 00:18:38;;;;;;;;;;;;;;;22.39;34.48;101883.53;6085943;23;96629;-86
2021/06/03 00:21:08;;;;;;;;;;;;;;;22.46;34.21;101870.53;6089126;23;99048;-87
2021/06/03 00:23:34;;;;;;;;;;;;;;;22.32;34.47;101874.13;6089746;23;99297;-88
2021/06/03 00:28:43;;;;;;;;;;;;;;;22.20;34.75;101873.13;6092641;23;97110;-89
2021/06/03 00:31:11;;;;;;;;;;;;;;;22.26;34.56;101867.34;6091320;23;97830;-88
2021/06/03 00:36:21;;;;;;;;;;;;;;;22.17;34.66;101875.19;6088420;23;96678;-88
2021/06/03 00:38:50;;;;;;;;;;;;;;;21.84;34.99;101870.16;6082573;23;96991;-88
2021/06/03 00:41:19;;;;;;;;;;;;;;;21.87;35.14;101873.50;6079323;23;97285;-88
2021/06/03 00:43:50;;;;;;;;;;;;;;;21.94;34.95;101873.97;6077155;23;99612;-89
2021/06/03 00:46:37;;;;;;;;;;;;;;;21.95;34.91;101864.06;6087107;23;96993;-87
2021/06/03 00:49:03;;;;;;;;;;;;;;;22.11;34.70;101867.53;6079974;23;96926;-87
2021/06/03 00:51:30;;;;;;;;;;;;;;;21.92;35.06;101857.06;6074273;23;99514;-87
2021/06/03 00:53:56;;;;;;;;;;;;;;;22.04;34.80;101855.44;6073870;23;100534;-86
2021/06/03 00:56:22;;;;;;;;;;;;;;;21.88;34.63;101853.69;6079479;23;96848;-87
2021/06/03 00:58:49;;;;;;;;;;;;;;;21.99;34.66;101860.25;6084957;23;96851;-87
2021/06/03 01:01:15;;;;;;;;;;;;;;;21.90;34.62;101861.69;6076617;23;101275;-87
2021/06/03 01:03:42;;;;;;;;;;;;;;;21.83;34.55;101858.53;6080597;23;99636;-86
2021/06/03 01:06:10;;;;;;;;;;;;;;;22.07;34.26;101860.59;6077265;23;97048;-87
2021/06/03 01:08:51;;;;;;;;;;;;;;;21.96;34.39;101865.81;6075671;23;96681;-87
2021/06/03 01:11:19;;;;;;;;;;;;;;;21.90;34.47;101864.38;6075035;23;100984;-86
2021/06/03 01:13:51;;;;;;;;;;;;;;;21.70;34.91;101859.41;6074859;23;98908;-86
2021/06/03 01:16:20;;;;;;;;;;;;;;;21.84;34.27;101860.25;6077641;23;96668;-86
2021/06/03 01:18:47;;;;;;;;;;;;;;;21.65;34.51;101865.09;6075751;23;96823;-86
2021/06/03 01:21:16;;;;;;;;;;;;;;;21.67;34.66;101879.28;6074727;23;96959;-86
2021/06/03 01:23:48;;;;;;;;;;;;;;;21.86;34.35;101869.06;6078451;23;99683;-87
2021/06/03 01:26:17;;;;;;;;;;;;;;;21.66;34.44;101871.34;6077761;23;96770;-86
2021/06/03 01:28:44;;;;;;;;;;;;;;;21.80;34.46;101874.84;6081834;23;96715;-86
2021/06/03 01:33:52;;;;;;;;;;;;;;;21.72;34.33;101882.56;6090562;23;98314;-87
2021/06/03 01:36:21;;;;;;;;;;;;;;;21.69;34.42;101888.13;6087633;23;96426;-86
2021/06/03 01:38:47;;;;;;;;;;;;;;;21.50;34.68;101887.56;6091106;23;96200;-88
2021/06/03 01:41:13;;;;;;;;;;;;;;;21.57;34.65;101886.22;6087771;23;100083;-87
2021/06/03 01:44:03;;;;;;;;;;;;;;;21.59;34.62;101897.75;6085026;23;99795;-86
2021/06/03 01:46:31;;;;;;;;;;;;;;;21.80;34.43;101890.13;6088416;23;96682;-87
2021/06/03 01:48:59;;;;;;;;;;;;;;;21.47;34.91;101895.81;6089947;23;96514;-87
2021/06/03 01:51:27;;;;;;;;;;;;;;;21.57;34.84;101899.69;6088341;23;100861;-86
2021/06/03 01:53:55;;;;;;;;;;;;;;;21.49;34.94;101901.97;6090597;23;98621;-87
2021/06/03 01:56:26;;;;;;;;;;;;;;;21.55;34.74;101898.91;6092944;23;96296;-88
2021/06/03 01:58:59;;;;;;;;;;;;;;;21.38;35.08;101910.72;6092991;23;96958;-86
2021/06/03 02:01:29;;;;;;;;;;;;;;;21.42;34.86;101904.19;6092784;23;97097;-87
2021/06/03 02:04:01;;;;;;;;;;;;;;;21.57;34.91;101904.19;6092957;23;99665;-88
2021/06/03 02:06:34;;;;;;;;;;;;;;;21.35;35.18;101904.66;6120105;23;96021;-88
2021/06/03 02:09:01;;;;;;;;;;;;;;;21.44;35.21;101901.41;6123462;23;95960;-88
2021/06/03 02:11:27;;;;;;;;;;;;;;;21.51;35.05;101900.06;6121037;23;100454;-86
2021/06/03 02:13:58;;;;;;;;;;;;;;;21.24;35.67;101904.47;6121423;23;98861;-85
2021/06/03 02:16:25;;;;;;;;;;;;;;;21.00;36.05;101901.44;6121992;23;96591;-86
2021/06/03 02:19:01;;;;;;;;;;;;;;;21.29;35.67;101905.03;6123089;23;96206;-86
2021/06/03 02:21:27;;;;;;;;;;;;;;;21.33;35.32;101902.06;6123111;23;100157;-86
2021/06/03 02:23:54;;;;;;;;;;;;;;;21.30;35.28;101906.78;6122671;23;98835;-86
2021/06/03 02:26:21;;;;;;;;;;;;;;;20.96;35.83;101903.44;6123330;23;95934;-87
2021/06/03 02:28:54;;;;;;;;;;;;;;;21.11;35.65;101900.78;6123390;23;96592;-86
2021/06/03 02:31:20;;;;;;;;;;;;;;;21.23;35.43;101910.81;6117655;23;99431;-86
2021/06/03 02:33:49;;;;;;;;;;;;;;;21.12;35.59;101907.88;6110612;23;101750;-88
2021/06/03 02:36:19;;;;;;;;;;;;;;;21.08;35.57;101909.88;6112495;23;96884;-87
2021/06/03 02:38:45;;;;;;;;;;;;;;;21.22;35.09;101909.06;6107016;23;96675;-87
2021/06/03 02:41:11;;;;;;;;;;;;;;;21.06;35.53;101910.00;6106353;23;101026;-86
2021/06/03 02:43:41;;;;;;;;;;;;;;;21.07;35.42;101917.06;6104163;23;101033;-86
2021/06/03 02:46:08;;;;;;;;;;;;;;;21.01;35.60;101906.69;6105021;23;96769;-86
2021/06/03 02:48:34;;;;;;;;;;;;;;;20.73;35.95;101914.72;6105559;23;96788;-86
2021/06/03 02:51:01;;;;;;;;;;;;;;;20.92;35.69;101912.66;6105428;23;98672;-87
2021/06/03 02:53:33;;;;;;;;;;;;;;;20.89;35.75;101904.75;6102752;23;100487;-86
2021/06/03 02:55:59;;;;;;;;;;;;;;;20.90;35.66;101903.81;6101712;23;96645;-86
2021/06/03 02:58:25;;;;;;;;;;;;;;;21.02;35.54;101911.13;6108341;23;96888;-87
2021/06/03 03:00:51;;;;;;;;;;;;;;;20.90;35.29;101909.19;6080357;23;101921;-87
2021/06/03 03:03:18;;;;;;;;;;;;;;;20.89;35.38;101904.75;6105117;23;100058;-87
2021/06/03 03:05:45;;;;;;;;;;;;;;;20.87;35.73;101913.88;6078891;23;96938;-86
2021/06/03 03:08:14;;;;;;;;;;;;;;;21.17;35.26;101917.44;6105903;23;96877;-88
2021/06/03 03:10:43;;;;;;;;;;;;;;;21.00;35.47;101910.34;6112388;23;99906;-87
2021/06/03 03:13:10;;;;;;;;;;;;;;;21.27;35.06;101913.19;6107764;23;99300;-86
2021/06/03 03:15:36;;;;;;;;;;;;;;;21.13;35.39;101920.38;6109514;23;96875;-87
2021/06/03 03:18:05;;;;;;;;;;;;;;;21.30;35.06;101918.41;6112969;23;96751;-87
2021/06/03 03:20:32;;;;;;;;;;;;;;;21.29;35.23;101916.66;6112195;23;100749;-87
2021/06/03 03:22:58;;;;;;;;;;;;;;;21.15;35.50;101927.38;6112898;23;98190;-86
2021/06/03 03:25:26;;;;;;;;;;;;;;;20.78;35.76;101926.03;6075959;23;97189;-87
2021/06/03 03:27:55;;;;;;;;;;;;;;;20.71;36.25;101927.34;6102062;23;96773;-86
2021/06/03 03:30:22;;;;;;;;;;;;;;;20.64;36.09;101923.31;6100399;23;99138;-86
2021/06/03 03:32:49;;;;;;;;;;;;;;;21.02;35.34;101921.88;6102981;23;97945;-85
2021/06/03 03:35:16;;;;;;;;;;;;;;;20.83;35.78;101918.56;6105283;23;96745;-86
2021/06/03 03:37:43;;;;;;;;;;;;;;;21.08;35.57;101924.19;6108123;23;96783;-88
2021/06/03 03:40:21;;;;;;;;;;;;;;;21.18;35.10;101923.66;6120805;23;98691;-88
2021/06/03 03:42:50;;;;;;;;;;;;;;;21.02;35.43;101916.50;6120568;23;100142;-86
2021/06/03 03:45:19;;;;;;;;;;;;;;;21.11;35.03;101923.16;6119353;23;96644;-85
2021/06/03 03:47:46;;;;;;;;;;;;;;;21.38;34.78;101923.31;6119439;23;96823;-88
2021/06/03 03:50:13;;;;;;;;;;;;;;;21.38;34.67;101926.88;6120825;23;96883;-87
2021/06/03 03:52:40;;;;;;;;;;;;;;;21.28;34.62;101916.75;6117425;23;97884;-86
2021/06/03 03:55:10;;;;;;;;;;;;;;;21.21;34.86;101918.09;6109657;23;96489;-87
2021/06/03 03:57:37;;;;;;;;;;;;;;;21.25;34.50;101925.03;6083543;23;96658;-87
2021/06/03 04:00:06;;;;;;;;;;;;;;;21.24;34.58;101931.34;6112640;23;100239;-87
2021/06/03 04:02:47;;;;;;;;;;;;;;;21.30;34.71;101936.34;6110678;23;98296;-88
2021/06/03 04:05:16;;;;;;;;;;;;;;;21.36;34.44;101928.78;6115140;23;96649;-87
2021/06/03 04:07:44;;;;;;;;;;;;;;;21.75;33.87;101930.78;6119361;23;96476;-88
2021/06/03 04:10:14;;;;;;;;;;;;;;;21.60;34.41;101934.44;6094290;23;98969;-87
2021/06/03 04:12:41;;;;;;;;;;;;;;;21.84;34.03;101935.59;6115720;23;99337;-87
2021/06/03 04:15:10;;;;;;;;;;;;;;;21.85;33.80;101933.75;6111370;23;96879;-87
2021/06/03 04:17:36;;;;;;;;;;;;;;;22.04;33.45;101942.41;6106057;23;96711;-88
2021/06/03 04:20:05;;;;;;;;;;;;;;;22.10;33.35;101933.94;6106966;23;100026;-88
2021/06/03 04:22:33;;;;;;;;;;;;;;;22.32;32.92;101936.06;6106028;23;99517;-88
2021/06/03 04:25:02;;;;;;;;;;;;;;;22.09;33.12;101940.28;6080070;23;97249;-87
2021/06/03 04:27:37;;;;;;;;;;;;;;;21.91;33.44;101943.28;6104170;23;97028;-87
2021/06/03 04:30:04;;;;;;;;;;;;;;;22.18;33.28;101938.84;6105063;23;100547;-87
2021/06/03 04:32:30;;;;;;;;;;;;;;;22.32;33.13;101940.63;6106094;23;98101;-87
2021/06/03 04:34:58;;;;;;;;;;;;;;;22.38;33.04;101935.69;6111169;23;96861;-87
2021/06/03 04:37:26;;;;;;;;;;;;;;;22.34;32.66;101944.91;6108537;23;96642;-86
2021/06/03 04:39:56;;;;;;;;;;;;;;;22.36;32.79;101943.00;6104326;23;101004;-86
2021/06/03 04:42:22;;;;;;;;;;;;;;;21.64;33.86;101944.06;6104377;23;98522;-87
2021/06/03 04:47:31;;;;;;;;;;;;;;;21.73;34.13;101943.47;6107427;23;96697;-87
2021/06/03 04:49:57;;;;;;;;;;;;;;;22.46;33.06;101943.25;6110287;23;98250;-86
2021/06/03 04:52:26;;;;;;;;;;;;;;;23.15;31.85;101943.03;6114643;23;99256;-87
2021/06/03 04:57:32;;;;;;;;;;;;;;;26.01;27.05;101937.59;6116010;23;96594;-86
2021/06/03 04:59:59;;;;;;;;;;;;;;;25.56;27.69;101945.69;6116407;23;101279;-87
2021/06/03 05:02:26;;;;;;;;;;;;;;;24.54;28.81;101941.97;6119388;23;99942;-87
2021/06/03 05:04:52;;;;;;;;;;;;;;;24.30;29.50;101947.34;6122415;23;95994;-88
2021/06/03 05:07:24;;;;;;;;;;;;;;;23.86;30.18;101952.41;6121204;23;96439;-86
2021/06/03 05:09:50;;;;;;;;;;;;;;;23.86;30.00;101958.69;6121169;23;99340;-88
2021/06/03 05:15:03;;;;;;;;;;;;;;;23.67;30.17;101961.84;6118181;23;96597;-87
2021/06/03 05:17:35;;;;;;;;;;;;;;;23.67;30.59;101956.44;6119388;23;96577;-87
2021/06/03 05:22:46;;;;;;;;;;;;;;;23.32;31.05;101953.50;6119518;23;96424;-87
2021/06/03 05:25:14;;;;;;;;;;;;;;;23.14;31.34;101957.47;6119591;23;96474;-87
2021/06/03 05:27:41;;;;;;;;;;;;;;;23.66;30.68;101957.41;6095008;23;96632;-86
2021/06/03 05:30:10;;;;;;;;;;;;;;;23.62;30.67;101953.22;6121332;23;96882;-86
2021/06/03 05:32:38;;;;;;;;;;;;;;;24.01;30.35;101948.63;6121646;23;97132;-87
2021/06/03 05:35:09;;;;;;;;;;;;;;;24.09;29.99;101954.31;6121655;23;96213;-87
2021/06/03 05:37:43;;;;;;;;;;;;;;;23.69;30.85;101959.91;6118777;23;96991;-89
2021/06/03 05:40:11;;;;;;;;;;;;;;;24.06;30.40;101958.09;6122169;23;98043;-88
2021/06/03 05:42:39;;;;;;;;;;;;;;;24.06;30.44;101958.09;6124042;23;97591;-86
2021/06/03 05:45:07;;;;;;;;;;;;;;;24.17;30.51;101965.41;6123206;23;95823;-87
2021/06/03 05:47:38;;;;;;;;;;;;;;;24.50;30.06;101962.06;6124062;23;96395;-85
2021/06/03 05:50:06;;;;;;;;;;;;;;;24.57;30.00;101964.19;6122956;23;98431;-87
2021/06/03 05:58:03;;;;;;;;;;;;;;;24.91;29.35;101967.94;6065046;23;96010;-87
2021/06/03 06:00:32;;;;;;;;;;;;;;;25.19;29.11;101968.53;6063159;23;96859;-87
2021/06/03 06:03:09;;;;;;;;;;;;;;;25.02;29.35;101973.38;6062939;23;96560;-89
2021/06/03 06:08:22;;;;;;;;;;;;;;;24.93;29.50;101974.13;6065892;23;96293;-88
2021/06/03 06:10:48;;;;;;;;;;;;;;;25.23;29.12;101986.22;6057660;23;98770;-89
2021/06/03 06:16:05;;;;;;;;;;;;;;;25.50;28.42;101981.38;6064015;23;95950;-85
2021/06/03 06:21:26;;;;;;;;;;;;;;;25.39;28.71;101989.47;6062701;23;98748;-86
2021/06/03 06:26:45;;;;;;;;;;;;;;;25.58;28.71;101995.19;6059809;23;96682;-89
2021/06/03 06:29:13;;;;;;;;;;;;;;;25.66;28.46;101995.47;6059299;23;96589;-87
2021/06/03 06:31:42;;;;;;;;;;;;;;;25.54;28.07;101996.38;6054674;23;99330;-86
2021/06/03 06:34:10;;;;;;;;;;;;;;;26.00;27.58;101992.72;6048861;23;98095;-86
2021/06/03 06:36:37;;;;;;;;;;;;;;;26.21;27.47;102004.53;6055915;23;96729;-85
2021/06/03 06:39:04;;;;;;;;;;;;;;;26.47;27.23;102000.59;6059939;23;96487;-87
2021/06/03 06:41:31;;;;;;;;;;;;;;;27.12;26.34;102002.34;6059556;23;98119;-88
2021/06/03 06:43:58;;;;;;;;;;;;;;;27.31;25.89;102013.34;6061177;23;98879;-85
2021/06/03 06:46:24;;;;;;;;;;;;;;;27.49;25.62;102010.03;6061887;23;95967;-86
2021/06/03 06:48:50;;;;;;;;;;;;;;;27.62;25.49;102000.72;6062175;23;96518;-87
2021/06/03 06:51:19;;;;;;;;;;;;;;;27.85;24.98;102016.81;6062544;23;98187;-88
2021/06/03 06:53:45;;;;;;;;;;;;;;;28.19;24.19;102014.72;6061002;23;97261;-88
2021/06/03 06:56:12;;;;;;;;;;;;;;;27.85;24.69;102019.53;6082133;23;96706;-88
2021/06/03 06:58:39;;;;;;;;;;;;;;;27.43;25.31;102016.00;6118798;23;96322;-87
2021/06/03 07:03:48;;;;;;;;;;;;;;;26.77;25.46;102012.59;6116069;23;96637;-87
2021/06/03 07:06:14;;;;;;;;;;;;;;;26.59;26.09;102010.41;6085298;23;96976;-86
2021/06/03 07:08:44;;;;;;;;;;;;;;;26.80;25.21;102009.59;6111237;23;96625;-86
2021/06/03 07:11:10;;;;;;;;;;;;;;;26.81;25.36;102005.91;6108422;23;98262;-86
2021/06/03 07:13:38;;;;;;;;;;;;;;;27.05;25.48;102009.28;6107139;23;99118;-86
2021/06/03 07:16:06;;;;;;;;;;;;;;;27.01;25.59;102004.25;6114008;23;96674;-87
2021/06/03 07:18:34;;;;;;;;;;;;;;;26.95;25.13;102011.94;6117765;23;96547;-87
2021/06/03 07:23:52;;;;;;;;;;;;;;;27.59;24.88;102006.41;6121213;23;98458;-87
2021/06/03 07:26:23;;;;;;;;;;;;;;;27.68;24.85;102000.19;6114972;23;96635;-88
2021/06/03 07:28:53;;;;;;;;;;;;;;;27.66;24.30;102007.59;6108110;23;96604;-89
2021/06/03 07:31:22;;;;;;;;;;;;;;;27.77;24.61;102014.78;6112616;23;97103;-88
2021/06/03 07:33:48;;;;;;;;;;;;;;;27.95;24.18;102012.31;6116941;23;98859;-87
2021/06/03 07:36:19;;;;;;;;;;;;;;;28.35;23.59;102009.63;6117932;23;96651;-87
2021/06/03 07:38:46;;;;;;;;;;;;;;;27.09;24.80;102013.47;6122935;23;95969;-88
2021/06/03 07:41:34;;;;;;;;;;;;;;;27.57;23.88;102013.81;6092756;23;97692;-85
2021/06/03 07:44:19;;;;;;;;;;;;;;;27.61;23.99;102015.28;6122618;23;97649;-85
2021/06/03 07:46:50;;;;;;;;;;;;;;;27.50;24.58;102007.19;6116822;23;96322;-88
2021/06/03 07:49:17;;;;;;;;;;;;;;;27.78;23.90;102016.50;6119892;23;96714;-87
2021/06/03 07:51:43;;;;;;;;;;;;;;;27.78;24.15;102013.78;6119242;23;100112;-87
2021/06/03 07:56:52;;;;;;;;;;;;;;;28.33;23.63;102007.03;6115561;23;96708;-88
2021/06/03 08:02:17;;;;;;;;;;;;;;;28.34;23.11;102010.63;6102743;23;98935;-85
2021/06/03 08:04:43;;;;;;;;;;;;;;;28.60;23.10;102003.66;6103982;23;100930;-85
2021/06/03 08:07:09;;;;;;;;;;;;;;;27.60;23.84;102007.28;6106646;23;96623;-84
2021/06/03 08:09:35;;;;;;;;;;;;;;;28.28;23.46;102009.31;6109437;23;97161;-84
2021/06/03 08:12:02;;;;;;;;;;;;;;;28.02;23.48;102008.06;6105696;23;98679;-85
2021/06/03 08:14:28;;;;;;;;;;;;;;;27.84;23.85;102007.81;6108591;23;100994;-85
2021/06/03 08:16:54;;;;;;;;;;;;;;;27.89;23.75;102002.88;6109325;23;96602;-85
2021/06/03 08:19:36;;;;;;;;;;;;;;;28.23;23.98;102002.56;6112313;23;97077;-85
2021/06/03 08:22:03;;;;;;;;;;;;;;;27.81;23.70;102007.25;6114947;23;98965;-85
2021/06/03 08:24:29;;;;;;;;;;;;;;;28.32;23.21;102005.31;6119014;23;100699;-84
2021/06/03 08:29:36;;;;;;;;;;;;;;;28.02;23.73;101999.91;6121376;23;96526;-85
2021/06/03 08:32:03;;;;;;;;;;;;;;;28.49;23.40;101996.47;6122369;23;98813;-84
2021/06/03 08:34:31;;;;;;;;;;;;;;;28.79;23.05;101995.56;6123050;23;97379;-83
2021/06/03 08:36:59;;;;;;;;;;;;;;;28.16;24.04;101996.00;6123167;23;96530;-84
2021/06/03 08:39:26;;;;;;;;;;;;;;;28.33;23.67;101995.31;6123931;23;96246;-83
2021/06/03 08:47:24;;;;;;;;;;;;;;;28.34;23.37;101989.75;6121008;23;95866;-81
2021/06/03 08:49:52;;;;;;;;;;;;;;;28.32;22.97;101989.00;6122250;23;96490;-83
2021/06/03 08:52:19;;;;;;;;;;;;;;;27.52;24.02;101991.66;6121901;23;99954;-85
2021/06/03 08:54:45;;;;;;;;;;;;;;;28.57;22.75;101987.63;6097412;23;97319;-84
2021/06/03 08:57:14;;;;;;;;;;;;;;;29.24;22.26;101986.78;6123229;23;96643;-86
2021/06/03 09:02:21;;;;;;;;;;;;;;;29.08;21.96;101987.38;6117908;23;98852;-86
2021/06/03 09:04:48;;;;;;;;;;;;;;;28.93;21.71;101983.38;6113396;23;98081;-85
2021/06/03 09:07:38;;;;;;;;;;;;;;;28.66;22.08;101986.78;6108620;23;96601;-86
2021/06/03 09:10:26;;;;;;;;;;;;;;;28.19;22.57;101990.25;6112681;23;96706;-87
2021/06/03 09:13:09;;;;;;;;;;;;;;;28.76;22.03;101987.66;6115072;23;98849;-88
2021/06/03 09:15:37;;;;;;;;;;;;;;;29.40;21.45;101986.22;6121227;23;100869;-88
2021/06/03 09:18:08;;;;;;;;;;;;;;;29.38;21.42;101982.78;6119557;23;96511;-88
2021/06/03 09:20:34;;;;;;;;;;;;;;;28.52;21.92;101988.06;6117363;23;95906;-88
2021/06/03 09:23:11;;;;;;;;;;;;;;;29.26;21.05;101985.66;6088703;23;96538;-90
2021/06/03 09:25:42;;;;;;;;;;;;;;;29.51;20.66;101973.28;6117407;23;99878;-88
2021/06/03 09:28:24;;;;;;;;;;;;;;;29.45;21.07;101978.47;6119493;23;96240;-88
2021/06/03 09:31:09;;;;;;;;;;;;;;;29.03;21.41;101975.19;6123024;23;96673;-87
2021/06/03 09:36:00;;;;;;;;;;;;;;;29.73;20.43;101971.22;6162470;22;96421;-87
2021/06/03 09:38:29;;;;;;;;;;;;;;;29.43;20.23;101969.59;6156094;22;96706;-87
2021/06/03 09:40:59;;;;;;;;;;;;;;;29.64;20.65;101973.81;6182773;22;95979;-88
2021/06/03 09:43:26;;;;;;;;;;;;;;;29.13;20.55;101971.47;6181671;22;97218;-86
2021/06/03 09:48:57;;;;;;;;;;;;;;;29.64;20.25;101962.94;6091466;23;96491;-88
2021/06/03 09:54:15;;;;;;;;;;;;;;;28.38;21.28;101950.41;6089502;23;96383;-87
2021/06/03 09:59:19;;;;;;;;;;;;;;;28.48;20.90;101955.84;6096569;23;96419;-87
2021/06/03 10:01:52;;;;;;;;;;;;;;;29.12;20.30;101952.56;6096789;23;96344;-88
2021/06/03 10:04:34;;;;;;;;;;;;;;;28.48;20.91;101951.28;6118933;23;97163;-86
2021/06/03 10:07:03;;;;;;;;;;;;;;;28.42;20.90;101954.53;6118234;23;98370;-87
2021/06/03 10:12:52;;;;;;;;;;;;;;;29.16;20.46;101945.81;6110822;23;96694;-86
2021/06/03 10:15:39;;;;;;;;;;;;;;;29.32;20.65;101962.41;6119221;23;96423;-86
2021/06/03 10:20:48;;;;;;;;;;;;;;;28.47;21.42;101948.69;6116402;23;96814;-86
2021/06/03 10:23:18;;;;;;;;;;;;;;;28.68;21.15;101952.16;6117456;23;96648;-85
2021/06/03 10:25:52;;;;;;;;;;;;;;;27.68;21.88;101956.75;6118424;23;96632;-86
2021/06/03 10:31:16;;;;;;;;;;;;;;;28.75;20.85;101950.59;6115667;23;96578;-86
2021/06/03 10:33:43;;;;;;;;;;;;;;;28.76;20.76;101949.59;6117278;23;96649;-86
2021/06/03 10:38:55;;;;;;;;;;;;;;;29.21;20.41;101947.09;6119399;23;96585;-87
2021/06/03 10:41:32;;;;;;;;;;;;;;;29.79;20.24;101948.81;6118024;23;96389;-85
2021/06/03 10:44:16;;;;;;;;;;;;;;;29.30;19.78;101954.41;6112767;23;96798;-83
2021/06/03 10:46:50;;;;;;;;;;;;;;;29.68;19.62;101945.28;6107034;23;99558;-85
2021/06/03 10:49:19;;;;;;;;;;;;;;;29.64;20.11;101937.56;6112583;23;100111;-85
2021/06/03 10:51:47;;;;;;;;;;;;;;;29.54;20.04;101943.03;6090403;23;96667;-85
2021/06/03 10:54:15;;;;;;;;;;;;;;;29.60;20.04;101939.69;6116466;23;96657;-86
2021/06/03 10:56:59;;;;;;;;;;;;;;;29.03;20.82;101939.81;6117409;23;96647;-86
2021/06/03 10:59:29;;;;;;;;;;;;;;;28.95;20.83;101937.00;6118186;23;98456;-86
2021/06/03 11:02:23;;;;;;;;;;;;;;;29.36;20.71;101933.91;6115011;23;97223;-90
2021/06/03 11:04:57;;;;;;;;;;;;;;;29.38;20.18;101925.63;6092390;23;96584;-89
2021/06/03 11:07:34;;;;;;;;;;;;;;;29.50;20.18;101928.00;6116300;23;99382;-90
2021/06/03 11:13:12;;;;;;;;;;;;;;;29.48;20.16;101927.28;6116071;23;96572;-91
2021/06/03 11:18:13;;;;;;;;;;;;;;;29.49;19.99;101925.41;6119029;22;96407;-90
2021/06/03 11:20:44;;;;;;;;;;;;;;;29.92;20.15;101922.97;6115967;23;98371;-88
2021/06/03 11:26:40;;;;;;;;;;;;;;;29.44;20.41;101922.28;6073209;23;96549;-89
2021/06/03 11:29:25;;;;;;;;;;;;;;;29.21;20.48;101919.03;6092546;23;97020;-87
2021/06/03 11:32:20;;;;;;;;;;;;;;;29.17;20.54;101915.75;6119027;23;98658;-87
2021/06/03 11:37:44;;;;;;;;;;;;;;;28.82;21.15;101908.22;6125601;22;96634;-88
2021/06/03 11:40:16;;;;;;;;;;;;;;;28.69;20.82;101913.06;6111246;22;96979;-89
2021/06/03 11:42:47;;;;;;;;;;;;;;;29.03;21.05;101920.78;6119953;23;96314;-88
2021/06/03 11:57:14;;;;;;;;;;;;;;;29.67;20.97;101910.00;6090745;23;96597;-88
2021/06/03 12:03:10;;;;;;;;;;;;;;;29.26;20.54;101914.88;6104932;22;96603;-87
2021/06/03 12:05:54;;;;;;;;;;;;;;;29.63;20.11;101912.19;6120191;23;98522;-88
2021/06/03 12:16:33;;;;;;;;;;;;;;;30.23;19.64;101903.56;6089893;23;98025;-88
2021/06/03 12:18:59;;;;;;;;;;;;;;;30.19;19.54;101899.44;6090117;23;96012;-89
2021/06/03 12:21:27;;;;;;;;;;;;;;;30.07;19.63;101898.78;6093272;22;96540;-89
2021/06/03 12:24:04;;;;;;;;;;;;;;;29.75;19.84;101887.47;6090524;23;97948;-90
2021/06/03 12:26:48;;;;;;;;;;;;;;;29.36;19.98;101892.22;6119535;23;99057;-88
2021/06/03 12:29:26;;;;;;;;;;;;;;;30.13;20.45;101881.81;6121079;23;96533;-87
2021/06/03 12:34:37;;;;;;;;;;;;;;;30.32;19.65;101894.47;6106019;22;99456;-86
2021/06/03 12:37:19;;;;;;;;;;;;;;;30.25;19.13;101890.63;6123699;23;96875;-88
2021/06/03 12:39:48;;;;;;;;;;;;;;;30.24;19.71;101884.31;6123285;23;95885;-87
2021/06/03 12:42:18;;;;;;;;;;;;;;;30.40;19.20;101891.78;6123209;23;96436;-85
2021/06/03 12:44:57;;;;;;;;;;;;;;;30.61;20.26;101880.59;6121988;23;98331;-88
2021/06/03 12:47:28;;;;;;;;;;;;;;;30.88;19.52;101883.22;6121785;23;99625;-89
2021/06/03 12:50:11;;;;;;;;;;;;;;;31.04;19.17;101875.16;6118154;23;96346;-86
2021/06/03 12:52:39;;;;;;;;;;;;;;;30.88;19.08;101866.84;6121727;23;96231;-86
2021/06/03 12:55:12;;;;;;;;;;;;;;;31.16;18.58;101868.44;6120880;23;99265;-88
2021/06/03 12:57:38;;;;;;;;;;;;;;;30.41;19.48;101868.97;6119173;23;97779;-84
2021/06/03 13:00:09;;;;;;;;;;;;;;;30.66;18.72;101865.47;6119479;23;96579;-89
2021/06/03 13:02:36;;;;;;;;;;;;;;;31.14;18.74;101861.41;6117306;23;96338;-88
2021/06/03 13:05:02;;;;;;;;;;;;;;;30.80;18.47;101859.44;6107931;23;99609;-89
2021/06/03 13:07:30;;;;;;;;;;;;;;;30.99;18.24;101857.53;6109195;23;99771;-88
2021/06/03 13:09:58;;;;;;;;;;;;;;;31.68;17.75;101860.19;6109210;23;96592;-87
2021/06/03 13:12:24;;;;;;;;;;;;;;;32.15;17.26;101846.00;6110955;23;96755;-88
2021/06/03 13:17:53;;;;;;;;;;;;;;;32.71;17.20;101843.31;6107609;23;96488;-87
2021/06/03 13:20:30;;;;;;;;;;;;;;;32.06;17.58;101845.09;6118055;23;96600;-88
2021/06/03 13:25:50;;;;;;;;;;;;;;;33.39;16.58;101842.00;6118638;23;96596;-87
2021/06/03 13:28:31;;;;;;;;;;;;;;;34.06;16.89;101839.63;6120112;23;98617;-88
2021/06/03 13:31:10;;;;;;;;;;;;;;;33.53;16.24;101842.09;6114574;23;96452;-87
2021/06/03 13:33:37;;;;;;;;;;;;;;;34.65;15.27;101835.22;6114180;23;96786;-89
2021/06/03 13:36:07;;;;;;;;;;;;;;;34.56;15.11;101833.59;6115160;23;98701;-88
2021/06/03 13:38:46;;;;;;;;;;;;;;;34.51;14.82;101827.81;6118253;23;98467;-87
2021/06/03 13:44:16;;;;;;;;;;;;;;;35.49;14.18;101825.78;6111159;23;96672;-88
2021/06/03 13:46:49;;;;;;;;;;;;;;;35.37;14.40;101824.56;6117272;23;96499;-89
2021/06/03 13:49:24;;;;;;;;;;;;;;;34.77;15.60;101826.41;6117632;23;99279;-90
2021/06/03 13:52:01;;;;;;;;;;;;;;;35.03;14.37;101822.34;6116679;23;96711;-88
2021/06/03 13:57:08;;;;;;;;;;;;;;;36.72;13.02;101816.34;6109408;23;99571;-86
2021/06/03 13:59:37;;;;;;;;;;;;;;;38.06;11.99;101820.47;6115094;23;99819;-89
2021/06/03 14:02:04;;;;;;;;;;;;;;;38.52;11.78;101819.69;6119451;23;96510;-89
2021/06/03 14:04:40;;;;;;;;;;;;;;;38.79;11.55;101829.66;6120094;23;96562;-86
2021/06/03 14:07:13;;;;;;;;;;;;;;;38.19;11.66;101814.13;6118782;23;99689;-89
2021/06/03 14:09:40;;;;;;;;;;;;;;;38.66;11.32;101816.69;6120416;23;97950;-86
2021/06/03 14:12:23;;;;;;;;;;;;;;;38.46;11.67;101823.28;6121007;23;96566;-87
2021/06/03 14:15:02;;;;;;;;;;;;;;;39.96;10.89;101818.47;6094364;23;96692;-88
2021/06/03 14:17:32;;;;;;;;;;;;;;;39.87;10.68;101816.19;6119742;23;100418;-88
2021/06/03 14:20:15;;;;;;;;;;;;;;;41.46;9.79;101819.28;6119873;23;97075;-89
2021/06/03 14:22:46;;;;;;;;;;;;;;;40.99;9.82;101825.31;6120505;23;96394;-89
2021/06/03 14:25:18;;;;;;;;;;;;;;;41.23;9.33;101818.03;6118796;23;96374;-90
2021/06/03 14:27:46;;;;;;;;;;;;;;;38.99;10.94;101821.38;6114845;23;99729;-90
2021/06/03 14:30:41;;;;;;;;;;;;;;;40.90;9.80;101812.81;6115365;23;97714;-90
2021/06/03 14:33:18;;;;;;;;;;;;;;;40.71;9.58;101810.25;6115183;23;96461;-89
2021/06/03 14:35:48;;;;;;;;;;;;;;;41.09;9.50;101807.34;6093328;23;95990;-89
2021/06/03 14:38:15;;;;;;;;;;;;;;;41.93;8.86;101810.13;6117744;23;96868;-89
2021/06/03 14:40:43;;;;;;;;;;;;;;;44.37;7.76;101806.22;6117729;23;96979;-89
2021/06/03 14:43:10;;;;;;;;;;;;;;;43.87;7.91;101808.03;6122618;23;95855;-89
2021/06/03 14:45:40;;;;;;;;;;;;;;;46.11;6.89;101808.28;6119795;23;96420;-90
2021/06/03 14:48:06;;;;;;;;;;;;;;;47.92;6.00;101809.66;6110248;23;97998;-88
2021/06/03 14:53:18;;;;;;;;;;;;;;;47.41;5.79;101809.50;6105058;23;96672;-90
2021/06/03 14:58:29;;;;;;;;;;;;;;;50.16;4.84;101802.28;6106648;23;98714;-89
2021/06/03 15:03:38;;;;;;;;;;;;;;;49.89;5.06;101807.56;6114365;23;96667;-89
2021/06/03 15:06:24;;;;;;;;;;;;;;;48.58;6.08;101818.09;6117251;23;95968;-88
2021/06/03 15:08:52;;;;;;;;;;;;;;;47.37;5.78;101807.53;6112943;23;96454;-88
2021/06/03 15:11:24;;;;;;;;;;;;;;;41.98;8.70;101799.16;6116679;23;96827;-89